Time;durP1;ratioP1;P1;durP2;ratioP2;P2;SDS_P1;SDS_P2;PMS_P1;PMS_P2;Temp;Humidity;BMP_temperature;BMP_pressure;BME280_temperature;BME280_humidity;BME280_pressure;Samples;Min_cycle;Max_cycle;Signal;HPM_P1;HPM_P2
2022/04/28 05:56:43;;;;;;;;;;;8.90;77.30;;;;;;6164516;23;19916;-80
2022/04/28 06:02:33;;;;;;;;;;;9.10;76.30;;;;;;6186238;23;19959;-76
2022/04/28 06:39:22;;;;;;;;;;;9.70;68.80;;;;;;6160120;23;19961;-75
2022/04/28 06:41:48;;;;;;;;;;;9.70;69.20;;;;;;6133899;23;19988;-76
2022/04/28 06:47:11;;;;;;;;;;;9.80;69.10;;;;;;6186329;23;19916;-75
2022/04/28 06:49:43;;;;;;;;;;;9.80;69.50;;;;;;6170552;23;20250;-80
2022/04/28 06:52:09;;;;;;;;;;;10.20;68.70;;;;;;6159397;23;19912;-78
2022/04/28 06:54:34;;;;;;;;;;;10.30;67.80;;;;;;6134577;23;19920;-77
2022/04/28 06:57:00;;;;;;;;;;;10.60;68.40;;;;;;6134267;23;19979;-80
2022/04/28 06:59:26;;;;;;;;;;;10.80;66.80;;;;;;6135522;23;19918;-78
2022/04/28 07:01:54;;;;;;;;;;;11.00;66.80;;;;;;6159589;23;19935;-79
2022/04/28 07:04:23;;;;;;;;;;;11.30;66.10;;;;;;6160220;23;19912;-78
2022/04/28 07:06:49;;;;;;;;;;;11.60;63.50;;;;;;6160459;23;19988;-79
2022/04/28 07:09:17;;;;;;;;;;;11.60;62.10;;;;;;6134964;23;19944;-78
2022/04/28 07:11:48;;;;;;;;;;;11.60;62.50;;;;;;6135413;23;19958;-79
2022/04/28 07:14:17;;;;;;;;;;;11.50;62.90;;;;;;6158971;23;19912;-80
2022/04/28 07:16:43;;;;;;;;;;;11.40;63.30;;;;;;6160167;23;19912;-79
2022/04/28 07:19:11;;;;;;;;;;;11.30;63.40;;;;;;6160366;23;19955;-79
2022/04/28 07:21:39;;;;;;;;;;;11.40;63.50;;;;;;6135230;23;19995;-78
2022/04/28 07:24:07;;;;;;;;;;;11.70;62.50;;;;;;6134564;23;19920;-80
2022/04/28 07:26:33;;;;;;;;;;;12.00;62.30;;;;;;6160064;23;19912;-80
2022/04/28 07:28:59;;;;;;;;;;;11.90;61.20;;;;;;6135128;23;19920;-79
2022/04/28 07:31:24;;;;;;;;;;;12.30;62.40;;;;;;6135550;23;20278;-79
2022/04/28 07:33:50;;;;;;;;;;;12.40;60.00;;;;;;6134500;23;20323;-78
2022/04/28 07:36:18;;;;;;;;;;;12.40;59.70;;;;;;6135069;23;19912;-78
2022/04/28 07:38:47;;;;;;;;;;;12.60;59.70;;;;;;6111000;23;19916;-81
2022/04/28 07:41:20;;;;;;;;;;;12.50;59.60;;;;;;6143451;23;19907;-80
2022/04/28 07:43:51;;;;;;;;;;;12.50;59.30;;;;;;6164073;23;19952;-79
2022/04/28 07:46:16;;;;;;;;;;;12.40;59.40;;;;;;6131485;23;20283;-79
2022/04/28 07:48:42;;;;;;;;;;;12.20;59.20;;;;;;6130623;23;19912;-81
2022/04/28 07:51:13;;;;;;;;;;;12.10;60.10;;;;;;6131431;23;19947;-79
2022/04/28 07:53:41;;;;;;;;;;;11.90;60.80;;;;;;6154594;23;19921;-79
2022/04/28 07:56:10;;;;;;;;;;;11.80;61.60;;;;;;6130408;23;19960;-79
2022/04/28 07:58:36;;;;;;;;;;;11.70;61.50;;;;;;6130186;23;19923;-83
2022/04/28 08:01:19;;;;;;;;;;;11.60;61.10;;;;;;6132439;23;19919;-82
2022/04/28 08:03:54;;;;;;;;;;;11.40;61.10;;;;;;6130940;23;19968;-82
2022/04/28 08:06:23;;;;;;;;;;;11.40;61.60;;;;;;6130512;23;19987;-81
2022/04/28 08:08:56;;;;;;;;;;;11.30;62.50;;;;;;6155017;23;19912;-81
2022/04/28 08:11:48;;;;;;;;;;;11.30;63.10;;;;;;6130456;23;19988;-81
2022/04/28 08:14:17;;;;;;;;;;;11.20;63.30;;;;;;6130132;23;19912;-83
2022/04/28 08:16:44;;;;;;;;;;;11.20;63.30;;;;;;6129699;23;19913;-81
2022/04/28 08:19:10;;;;;;;;;;;11.20;63.00;;;;;;6155079;23;19924;-82
2022/04/28 08:21:38;;;;;;;;;;;11.20;62.80;;;;;;6130498;23;19912;-84
2022/04/28 08:24:16;;;;;;;;;;;11.30;62.90;;;;;;6130060;23;19913;-80
2022/04/28 08:26:42;;;;;;;;;;;11.20;63.80;;;;;;6131735;23;19912;-82
2022/04/28 08:29:08;;;;;;;;;;;11.20;65.10;;;;;;6130984;23;19916;-82
2022/04/28 08:31:34;;;;;;;;;;;11.20;64.60;;;;;;6130690;23;19963;-82
2022/04/28 08:34:00;;;;;;;;;;;11.20;64.90;;;;;;6130134;23;19967;-83
2022/04/28 08:36:25;;;;;;;;;;;11.00;65.30;;;;;;6154582;23;20279;-82
2022/04/28 08:38:56;;;;;;;;;;;11.00;65.20;;;;;;6131460;23;20231;-81
2022/04/28 08:41:30;;;;;;;;;;;11.00;64.70;;;;;;6136406;23;19912;-81
2022/04/28 08:43:58;;;;;;;;;;;11.00;65.00;;;;;;6140977;23;19936;-82
2022/04/28 08:49:14;;;;;;;;;;;10.90;64.40;;;;;;6183702;23;19999;-81
2022/04/28 08:51:43;;;;;;;;;;;10.80;65.30;;;;;;6136929;23;19987;-82
2022/04/28 08:54:10;;;;;;;;;;;10.80;65.90;;;;;;6131390;23;19920;-82
2022/04/28 08:56:36;;;;;;;;;;;10.90;64.90;;;;;;6132620;23;19924;-81
2022/04/28 08:59:02;;;;;;;;;;;10.80;64.70;;;;;;6131818;23;20196;-81
2022/04/28 09:01:28;;;;;;;;;;;10.90;63.30;;;;;;6131742;23;19959;-83
2022/04/28 09:03:57;;;;;;;;;;;10.90;64.30;;;;;;6131357;23;19912;-82
2022/04/28 09:06:30;;;;;;;;;;;11.00;63.50;;;;;;6131785;23;20315;-81
2022/04/28 09:08:57;;;;;;;;;;;11.20;63.80;;;;;;6131913;23;20243;-82
2022/04/28 09:11:28;;;;;;;;;;;11.30;63.20;;;;;;6155353;23;19913;-81
2022/04/28 09:14:09;;;;;;;;;;;11.30;62.40;;;;;;6156694;23;19916;-81
2022/04/28 09:16:42;;;;;;;;;;;11.20;63.60;;;;;;6132442;23;20003;-83
2022/04/28 09:19:19;;;;;;;;;;;11.20;64.40;;;;;;6131978;23;19991;-83
2022/04/28 09:21:50;;;;;;;;;;;11.30;64.00;;;;;;6132316;23;19917;-82
2022/04/28 09:24:20;;;;;;;;;;;11.10;64.60;;;;;;6132142;23;19966;-82
2022/04/28 09:26:54;;;;;;;;;;;11.20;64.00;;;;;;6132288;23;19919;-81
2022/04/28 09:29:22;;;;;;;;;;;11.10;64.30;;;;;;6131889;23;19912;-80
2022/04/28 09:31:51;;;;;;;;;;;11.20;64.50;;;;;;6132161;23;19918;-81
2022/04/28 09:34:18;;;;;;;;;;;11.20;65.50;;;;;;6131999;23;19916;-83
2022/04/28 09:36:45;;;;;;;;;;;11.10;65.10;;;;;;6131802;23;20342;-80
2022/04/28 09:42:29;;;;;;;;;;;11.10;65.60;;;;;;6131264;23;20354;-83
2022/04/28 09:44:48;;;;;;;;;;;11.10;64.60;;;;;;6157393;23;19948;-81
2022/04/28 09:47:14;;;;;;;;;;;11.20;63.50;;;;;;6131211;23;19951;-81
2022/04/28 09:49:52;;;;;;;;;;;11.40;63.40;;;;;;6131181;23;19923;-82
2022/04/28 09:52:24;;;;;;;;;;;11.50;62.70;;;;;;6131580;23;19917;-82
2022/04/28 09:54:50;;;;;;;;;;;11.40;61.50;;;;;;6131308;23;19912;-82
2022/04/28 09:57:17;;;;;;;;;;;11.50;62.20;;;;;;6130420;23;19923;-81
2022/04/28 09:59:44;;;;;;;;;;;11.50;62.40;;;;;;6130356;23;19944;-74
2022/04/28 10:02:12;;;;;;;;;;;11.60;62.20;;;;;;6130942;23;19916;-77
2022/04/28 10:04:56;;;;;;;;;;;11.70;61.80;;;;;;6131052;23;19912;-80
2022/04/28 10:07:26;;;;;;;;;;;11.70;62.20;;;;;;6142468;23;19983;-75
2022/04/28 10:09:52;;;;;;;;;;;11.60;62.30;;;;;;6135876;23;20379;-75
2022/04/28 10:12:19;;;;;;;;;;;11.60;63.50;;;;;;6157940;23;19923;-72
2022/04/28 10:14:45;;;;;;;;;;;11.60;63.10;;;;;;6132826;23;19916;-72
2022/04/28 10:17:13;;;;;;;;;;;11.80;61.70;;;;;;6130670;23;19996;-75
2022/04/28 10:19:42;;;;;;;;;;;11.60;63.30;;;;;;6130924;23;19967;-74
2022/04/28 10:22:26;;;;;;;;;;;11.30;63.50;;;;;;6155653;23;19921;-77
2022/04/28 10:33:37;;;;;;;;;;;11.40;63.70;;;;;;6154582;23;19923;-71
2022/04/28 10:39:16;;;;;;;;;;;11.30;63.50;;;;;;6067636;23;20304;-77
2022/04/28 10:45:19;;;;;;;;;;;11.20;65.30;;;;;;6125114;23;20294;-77
2022/04/28 11:08:47;;;;;;;;;;;11.40;64.30;;;;;;6094618;23;19912;-81
2022/04/28 11:11:19;;;;;;;;;;;11.60;64.50;;;;;;6147206;23;19923;-82
2022/04/28 11:13:49;;;;;;;;;;;11.80;64.50;;;;;;6135066;23;19944;-77
2022/04/28 11:16:16;;;;;;;;;;;11.70;64.80;;;;;;6184199;23;20296;-77
2022/04/28 11:18:43;;;;;;;;;;;11.70;63.60;;;;;;6134575;23;19923;-79
2022/04/28 11:27:54;;;;;;;;;;;11.60;62.90;;;;;;6146795;23;19912;-79
2022/04/28 11:30:21;;;;;;;;;;;11.60;62.80;;;;;;6134798;23;19959;-79
2022/04/28 11:32:57;;;;;;;;;;;11.60;63.90;;;;;;6184236;23;20274;-80
2022/04/28 11:35:28;;;;;;;;;;;11.50;63.70;;;;;;6137399;23;19961;-79
2022/04/28 11:37:54;;;;;;;;;;;11.50;64.20;;;;;;6191735;23;19919;-79
2022/04/28 11:40:20;;;;;;;;;;;11.70;63.80;;;;;;6149111;23;19940;-74
2022/04/28 11:42:55;;;;;;;;;;;11.80;63.70;;;;;;6158528;23;19916;-78
2022/04/28 11:45:21;;;;;;;;;;;11.90;63.10;;;;;;6198417;23;19912;-78
2022/04/28 11:47:49;;;;;;;;;;;11.80;62.60;;;;;;6135806;23;20232;-79
2022/04/28 11:50:21;;;;;;;;;;;11.90;63.00;;;;;;6135886;23;19935;-79
2022/04/28 11:52:58;;;;;;;;;;;11.90;61.90;;;;;;6159664;23;19987;-79
2022/04/28 11:55:25;;;;;;;;;;;12.00;63.00;;;;;;6130790;23;20219;-79
2022/04/28 11:57:51;;;;;;;;;;;12.00;63.00;;;;;;6179668;23;20324;-80
2022/04/28 12:00:16;;;;;;;;;;;12.10;62.40;;;;;;6130813;23;19963;-80
2022/04/28 12:02:43;;;;;;;;;;;12.20;61.30;;;;;;6155600;23;20223;-78
2022/04/28 12:05:16;;;;;;;;;;;12.20;61.60;;;;;;6155832;23;19913;-78
2022/04/28 12:07:43;;;;;;;;;;;12.20;62.30;;;;;;6181099;23;19924;-79
2022/04/28 12:15:49;;;;;;;;;;;11.90;62.40;;;;;;6182526;23;19988;-79
2022/04/28 12:21:00;;;;;;;;;;;11.90;63.40;;;;;;6181979;23;19912;-78
2022/04/28 12:23:39;;;;;;;;;;;11.90;63.40;;;;;;6181930;23;19995;-79
2022/04/28 12:26:06;;;;;;;;;;;12.00;62.10;;;;;;6157649;23;20119;-79
2022/04/28 12:28:33;;;;;;;;;;;12.10;62.40;;;;;;6132868;23;19913;-80
2022/04/28 12:30:59;;;;;;;;;;;11.90;61.20;;;;;;6157186;23;19912;-79
2022/04/28 12:33:28;;;;;;;;;;;12.10;62.10;;;;;;6157578;23;19916;-78
2022/04/28 12:35:58;;;;;;;;;;;12.00;61.80;;;;;;6157899;23;19913;-79
2022/04/28 12:38:26;;;;;;;;;;;12.00;61.30;;;;;;6182374;23;20327;-79
2022/04/28 12:40:52;;;;;;;;;;;12.10;61.50;;;;;;6158188;23;19916;-79
2022/04/28 12:43:37;;;;;;;;;;;12.10;60.90;;;;;;6157849;23;19940;-80
2022/04/28 12:46:05;;;;;;;;;;;12.10;61.60;;;;;;6177158;23;19904;-81
2022/04/28 12:48:31;;;;;;;;;;;12.20;61.00;;;;;;6207429;23;19988;-79
2022/04/28 12:51:12;;;;;;;;;;;11.90;61.20;;;;;;6179478;23;19920;-80
2022/04/28 12:53:39;;;;;;;;;;;11.80;61.90;;;;;;6161670;23;19904;-79
2022/04/28 12:56:10;;;;;;;;;;;11.90;62.20;;;;;;6189444;23;19904;-81
2022/04/28 12:58:36;;;;;;;;;;;12.00;62.50;;;;;;6140718;23;19916;-79
2022/04/28 13:01:02;;;;;;;;;;;12.00;62.40;;;;;;6161315;23;19923;-80
2022/04/28 13:03:28;;;;;;;;;;;11.80;61.80;;;;;;6139736;23;19912;-78
2022/04/28 13:05:55;;;;;;;;;;;12.00;61.40;;;;;;6193289;23;19916;-79
2022/04/28 13:08:20;;;;;;;;;;;12.20;61.00;;;;;;6202236;23;19923;-75
2022/04/28 13:10:46;;;;;;;;;;;12.20;60.90;;;;;;6160329;23;19912;-76
2022/04/28 13:13:11;;;;;;;;;;;12.40;62.00;;;;;;6168257;23;20036;-81
2022/04/28 13:15:37;;;;;;;;;;;12.20;61.20;;;;;;6161254;23;20307;-78
2022/04/28 13:18:03;;;;;;;;;;;12.30;61.00;;;;;;6136439;23;19912;-78
2022/04/28 13:20:29;;;;;;;;;;;12.10;60.40;;;;;;6161091;23;19916;-78
2022/04/28 13:22:54;;;;;;;;;;;12.00;60.90;;;;;;6136467;23;19964;-78
2022/04/28 13:25:23;;;;;;;;;;;11.90;62.20;;;;;;6136396;23;20346;-78
2022/04/28 13:27:49;;;;;;;;;;;11.70;62.60;;;;;;6137047;23;19912;-79
2022/04/28 13:30:15;;;;;;;;;;;12.00;61.30;;;;;;6136690;23;19912;-78
2022/04/28 13:32:41;;;;;;;;;;;12.10;61.80;;;;;;6136872;23;19912;-79
2022/04/28 13:35:06;;;;;;;;;;;12.00;61.80;;;;;;6160562;23;19983;-79
2022/04/28 13:37:32;;;;;;;;;;;12.10;62.50;;;;;;6136180;23;19912;-78
2022/04/28 13:39:58;;;;;;;;;;;12.40;61.00;;;;;;6135836;23;19971;-79
2022/04/28 13:42:23;;;;;;;;;;;12.30;60.00;;;;;;6136092;23;19913;-78
2022/04/28 13:44:49;;;;;;;;;;;12.40;61.00;;;;;;6136031;23;19912;-78
2022/04/28 13:47:15;;;;;;;;;;;12.50;60.80;;;;;;6160612;23;19916;-78
2022/04/28 13:49:40;;;;;;;;;;;12.30;60.60;;;;;;6185628;23;19958;-79
2022/04/28 13:52:07;;;;;;;;;;;12.20;61.20;;;;;;6136441;23;19987;-78
2022/04/28 13:54:33;;;;;;;;;;;12.10;61.50;;;;;;6180700;23;20051;-78
2022/04/28 13:56:59;;;;;;;;;;;12.20;61.50;;;;;;6180571;23;19963;-78
2022/04/28 13:59:24;;;;;;;;;;;12.10;60.40;;;;;;6155967;23;19916;-79
2022/04/28 14:01:53;;;;;;;;;;;12.20;59.50;;;;;;6131430;23;19912;-80
2022/04/28 14:04:24;;;;;;;;;;;12.40;61.10;;;;;;6155286;23;19913;-78
2022/04/28 14:06:51;;;;;;;;;;;12.40;60.90;;;;;;6155501;23;19913;-78
2022/04/28 14:09:17;;;;;;;;;;;12.50;61.60;;;;;;6156019;23;19913;-79
2022/04/28 14:11:43;;;;;;;;;;;12.50;60.40;;;;;;6180661;23;20235;-79
2022/04/28 14:14:08;;;;;;;;;;;12.40;60.50;;;;;;6155279;23;20030;-78
2022/04/28 14:16:34;;;;;;;;;;;12.30;60.10;;;;;;6155248;23;19912;-79
2022/04/28 14:19:00;;;;;;;;;;;12.30;61.40;;;;;;6131235;23;20278;-77
2022/04/28 14:21:25;;;;;;;;;;;12.30;60.10;;;;;;6155436;23;19924;-78
2022/04/28 14:23:51;;;;;;;;;;;12.30;59.90;;;;;;6180058;23;19913;-78
2022/04/28 14:26:18;;;;;;;;;;;12.40;60.30;;;;;;6155425;23;19920;-79
2022/04/28 14:28:44;;;;;;;;;;;12.40;60.20;;;;;;6156308;23;19919;-79
2022/04/28 14:31:10;;;;;;;;;;;12.30;60.90;;;;;;6162796;23;19952;-80
2022/04/28 14:33:36;;;;;;;;;;;12.20;60.00;;;;;;6190147;23;19917;-75
2022/04/28 14:36:02;;;;;;;;;;;12.20;59.50;;;;;;6155082;23;19912;-73
2022/04/28 14:38:28;;;;;;;;;;;12.10;59.70;;;;;;6202011;23;19917;-79
2022/04/28 14:40:54;;;;;;;;;;;12.20;61.30;;;;;;6130654;23;19920;-80
2022/04/28 14:43:20;;;;;;;;;;;12.40;59.70;;;;;;6155689;23;20304;-79
2022/04/28 14:45:48;;;;;;;;;;;12.40;60.10;;;;;;6154894;23;19918;-79
2022/04/28 14:48:16;;;;;;;;;;;12.40;60.50;;;;;;6155529;23;19912;-78
2022/04/28 14:53:27;;;;;;;;;;;12.20;60.60;;;;;;6180346;23;19987;-79
2022/04/28 14:55:52;;;;;;;;;;;11.80;60.60;;;;;;6154293;23;20008;-79
2022/04/28 14:58:19;;;;;;;;;;;12.10;60.70;;;;;;6130409;23;19995;-79
2022/04/28 15:00:45;;;;;;;;;;;12.60;59.70;;;;;;6130933;23;19912;-79
2022/04/28 15:03:12;;;;;;;;;;;13.10;59.10;;;;;;6155181;23;19920;-80
2022/04/28 15:05:37;;;;;;;;;;;13.40;57.60;;;;;;6154472;23;20047;-79
2022/04/28 15:08:03;;;;;;;;;;;13.80;57.50;;;;;;6180246;23;19944;-77
2022/04/28 15:10:29;;;;;;;;;;;13.10;57.90;;;;;;6180099;23;19923;-79
2022/04/28 15:12:54;;;;;;;;;;;12.50;59.70;;;;;;6180224;23;20212;-77
2022/04/28 15:15:25;;;;;;;;;;;12.00;60.90;;;;;;6130119;23;19913;-77
2022/04/28 15:17:51;;;;;;;;;;;11.90;61.40;;;;;;6179937;23;19995;-77
2022/04/28 15:20:17;;;;;;;;;;;11.90;61.10;;;;;;6154995;23;19944;-78
2022/04/28 15:22:42;;;;;;;;;;;12.50;61.00;;;;;;6179625;23;19920;-79
2022/04/28 15:25:09;;;;;;;;;;;13.20;58.80;;;;;;6129778;23;19917;-78
2022/04/28 15:27:35;;;;;;;;;;;13.70;56.60;;;;;;6130371;23;20208;-77
2022/04/28 15:30:01;;;;;;;;;;;13.70;56.60;;;;;;6180243;23;19912;-79
2022/04/28 15:32:27;;;;;;;;;;;13.30;57.90;;;;;;6130698;23;19983;-78
2022/04/28 15:34:52;;;;;;;;;;;12.90;58.60;;;;;;6130042;23;20271;-79
2022/04/28 15:37:18;;;;;;;;;;;12.40;59.50;;;;;;6130196;23;19916;-79
2022/04/28 15:39:43;;;;;;;;;;;12.20;60.10;;;;;;6130272;23;19987;-79
2022/04/28 15:42:11;;;;;;;;;;;11.80;60.80;;;;;;6166390;23;19940;-78
2022/04/28 15:44:36;;;;;;;;;;;11.80;61.60;;;;;;6206990;23;19936;-77
2022/04/28 15:47:02;;;;;;;;;;;11.90;62.10;;;;;;6158394;23;19904;-78
2022/04/28 15:49:28;;;;;;;;;;;11.60;62.80;;;;;;6150245;23;19916;-77
2022/04/28 15:51:53;;;;;;;;;;;11.70;63.40;;;;;;6132449;23;19913;-78
2022/04/28 15:54:19;;;;;;;;;;;11.50;62.60;;;;;;6181053;23;20426;-80
2022/04/28 15:56:45;;;;;;;;;;;11.40;63.20;;;;;;6132438;23;19916;-78
2022/04/28 15:59:11;;;;;;;;;;;11.40;62.40;;;;;;6132685;23;19912;-79
2022/04/28 16:01:39;;;;;;;;;;;11.40;63.10;;;;;;6132914;23;20330;-78
2022/04/28 16:04:05;;;;;;;;;;;11.50;62.00;;;;;;6156363;23;20263;-78
2022/04/28 16:06:31;;;;;;;;;;;11.70;62.20;;;;;;6131865;23;19940;-79
2022/04/28 16:08:56;;;;;;;;;;;12.20;61.60;;;;;;6159300;23;19983;-79
2022/04/28 16:11:23;;;;;;;;;;;12.60;59.60;;;;;;6189158;23;19913;-77
2022/04/28 16:13:48;;;;;;;;;;;12.40;60.50;;;;;;6164551;23;19944;-80
2022/04/28 16:16:14;;;;;;;;;;;12.20;61.10;;;;;;6171255;23;19913;-73
2022/04/28 16:18:41;;;;;;;;;;;12.00;60.20;;;;;;6178717;23;19916;-73
2022/04/28 16:21:06;;;;;;;;;;;11.50;61.90;;;;;;6157917;23;19920;-78
2022/04/28 16:23:32;;;;;;;;;;;11.20;62.80;;;;;;6131929;23;20351;-78
2022/04/28 16:25:58;;;;;;;;;;;11.00;62.90;;;;;;6131932;23;20271;-78
2022/04/28 16:28:23;;;;;;;;;;;11.10;64.50;;;;;;6132244;23;20244;-78
2022/04/28 16:30:50;;;;;;;;;;;10.90;64.30;;;;;;6131822;23;19987;-78
2022/04/28 16:33:18;;;;;;;;;;;10.90;64.80;;;;;;6181200;23;19959;-78
2022/04/28 16:35:43;;;;;;;;;;;10.80;64.80;;;;;;6131828;23;19913;-80
2022/04/28 16:38:09;;;;;;;;;;;10.40;66.10;;;;;;6132284;23;19920;-77
2022/04/28 16:40:34;;;;;;;;;;;10.30;66.20;;;;;;6132080;23;20256;-81
2022/04/28 16:43:01;;;;;;;;;;;10.30;66.60;;;;;;6180858;23;19968;-78
2022/04/28 16:45:26;;;;;;;;;;;10.30;66.60;;;;;;6155882;23;20327;-77
2022/04/28 16:47:52;;;;;;;;;;;10.20;67.00;;;;;;6156843;23;19913;-78
2022/04/28 16:50:18;;;;;;;;;;;10.20;66.80;;;;;;6181651;23;20264;-78
2022/04/28 16:52:44;;;;;;;;;;;10.00;66.70;;;;;;6156237;23;20212;-79
2022/04/28 16:55:11;;;;;;;;;;;10.00;66.60;;;;;;6185073;23;19922;-78
2022/04/28 16:57:37;;;;;;;;;;;10.00;67.10;;;;;;6136447;23;19962;-79
2022/04/28 17:00:06;;;;;;;;;;;10.10;67.50;;;;;;6161537;23;19913;-77
2022/04/28 17:05:23;;;;;;;;;;;10.00;68.00;;;;;;6185394;23;19959;-74
2022/04/28 17:07:49;;;;;;;;;;;9.80;67.30;;;;;;6191485;23;19919;-78
2022/04/28 17:10:15;;;;;;;;;;;10.00;67.10;;;;;;6166411;23;19962;-79
2022/04/28 17:12:41;;;;;;;;;;;9.70;67.70;;;;;;6137095;23;19916;-77
2022/04/28 17:15:07;;;;;;;;;;;9.70;67.80;;;;;;6187447;23;19923;-80
2022/04/28 17:17:32;;;;;;;;;;;9.80;68.10;;;;;;6186041;23;20267;-79
2022/04/28 17:19:58;;;;;;;;;;;9.70;67.70;;;;;;6162765;23;19920;-79
2022/04/28 17:22:25;;;;;;;;;;;9.70;68.20;;;;;;6161660;23;19916;-77
2022/04/28 17:24:50;;;;;;;;;;;9.80;68.60;;;;;;6136116;23;20304;-78
2022/04/28 17:27:16;;;;;;;;;;;9.60;68.90;;;;;;6185971;23;19920;-77
2022/04/28 17:29:44;;;;;;;;;;;9.60;69.00;;;;;;6161432;23;19920;-78
2022/04/28 17:32:12;;;;;;;;;;;9.50;68.90;;;;;;6136322;23;20311;-78
2022/04/28 17:34:40;;;;;;;;;;;9.50;69.10;;;;;;6160437;23;19913;-75
2022/04/28 17:37:05;;;;;;;;;;;9.40;69.80;;;;;;6161366;23;19916;-77
2022/04/28 17:39:31;;;;;;;;;;;9.70;69.50;;;;;;6162867;23;20334;-76
2022/04/28 17:41:56;;;;;;;;;;;9.30;69.80;;;;;;6165095;23;19913;-72
2022/04/28 17:44:22;;;;;;;;;;;9.20;70.70;;;;;;6172451;23;19912;-74
2022/04/28 17:46:48;;;;;;;;;;;9.20;71.00;;;;;;6152616;23;19913;-78
2022/04/28 17:49:14;;;;;;;;;;;9.10;71.40;;;;;;6161077;23;19935;-79
2022/04/28 17:51:43;;;;;;;;;;;9.10;70.80;;;;;;6185660;23;19912;-78
2022/04/28 17:54:10;;;;;;;;;;;9.00;71.30;;;;;;6136208;23;19916;-78
2022/04/28 18:02:04;;;;;;;;;;;8.90;71.80;;;;;;6185732;23;19912;-79
2022/04/28 18:04:30;;;;;;;;;;;8.80;71.50;;;;;;6184903;23;19913;-79
2022/04/28 18:06:56;;;;;;;;;;;8.70;71.50;;;;;;6185616;23;19923;-79
2022/04/28 18:09:22;;;;;;;;;;;8.60;72.60;;;;;;6185622;23;19920;-78
2022/04/28 18:11:47;;;;;;;;;;;8.70;73.00;;;;;;6160408;23;19916;-79
2022/04/28 18:14:13;;;;;;;;;;;8.50;73.10;;;;;;6159629;23;19946;-77
2022/04/28 18:16:53;;;;;;;;;;;8.50;73.10;;;;;;6136124;23;19947;-82
2022/04/28 18:19:23;;;;;;;;;;;8.40;72.90;;;;;;6113602;23;19919;-78
2022/04/28 18:21:49;;;;;;;;;;;8.20;73.30;;;;;;6160563;23;19975;-78
2022/04/28 18:24:14;;;;;;;;;;;8.40;74.20;;;;;;6184588;23;20307;-79
2022/04/28 18:26:43;;;;;;;;;;;8.20;74.00;;;;;;6136111;23;19919;-80
2022/04/28 18:29:10;;;;;;;;;;;8.10;75.20;;;;;;6135778;23;19920;-78
2022/04/28 18:31:35;;;;;;;;;;;8.20;74.50;;;;;;6184982;23;19916;-73
2022/04/28 18:34:01;;;;;;;;;;;8.10;74.70;;;;;;6134873;23;19919;-75
2022/04/28 18:44:42;;;;;;;;;;;7.80;75.30;;;;;;6136396;23;19912;-74
2022/04/28 18:47:08;;;;;;;;;;;7.70;75.70;;;;;;6159946;23;19934;-75
2022/04/28 18:49:46;;;;;;;;;;;7.70;76.20;;;;;;6133281;23;19912;-82
2022/04/28 18:52:12;;;;;;;;;;;7.70;76.50;;;;;;6134433;23;20256;-76
2022/04/28 18:58:00;;;;;;;;;;;7.50;77.60;;;;;;6114879;23;20297;-77
2022/04/28 19:00:27;;;;;;;;;;;7.40;77.60;;;;;;6135251;23;19955;-74
2022/04/28 19:02:56;;;;;;;;;;;7.30;77.50;;;;;;6159105;23;19919;-74
2022/04/28 19:05:22;;;;;;;;;;;7.30;77.40;;;;;;6161127;23;19919;-74
2022/04/28 19:07:47;;;;;;;;;;;7.30;77.30;;;;;;6164948;23;19916;-75
2022/04/28 19:10:13;;;;;;;;;;;7.30;77.30;;;;;;6166117;23;19920;-72
2022/04/28 19:12:43;;;;;;;;;;;7.30;77.50;;;;;;6196122;23;20220;-73
2022/04/28 19:18:56;;;;;;;;;;;7.20;78.20;;;;;;6159432;23;19920;-79
2022/04/28 19:21:31;;;;;;;;;;;7.10;78.00;;;;;;6135148;23;19916;-73
2022/04/28 19:23:56;;;;;;;;;;;7.00;78.20;;;;;;6134054;23;19989;-73
2022/04/28 19:26:22;;;;;;;;;;;7.10;78.40;;;;;;6159381;23;20204;-74
2022/04/28 19:28:47;;;;;;;;;;;6.90;79.30;;;;;;6134426;23;19919;-73
2022/04/28 19:31:13;;;;;;;;;;;6.90;79.00;;;;;;6159284;23;20233;-75
2022/04/28 19:33:40;;;;;;;;;;;6.80;79.30;;;;;;6158778;23;20311;-73
2022/04/28 19:36:08;;;;;;;;;;;6.70;79.30;;;;;;6184301;23;19963;-72
2022/04/28 19:38:33;;;;;;;;;;;6.80;79.30;;;;;;6159393;23;20311;-72
2022/04/28 19:40:59;;;;;;;;;;;6.80;79.20;;;;;;6183515;23;20076;-72
2022/04/28 19:43:25;;;;;;;;;;;6.90;79.30;;;;;;6158841;23;19939;-73
2022/04/28 19:45:50;;;;;;;;;;;7.10;79.70;;;;;;6158439;23;19919;-72
2022/04/28 19:48:16;;;;;;;;;;;6.90;79.20;;;;;;6134676;23;20276;-72
2022/04/28 19:50:42;;;;;;;;;;;6.90;79.10;;;;;;6159288;23;20037;-72
2022/04/28 19:53:08;;;;;;;;;;;6.90;79.00;;;;;;6134061;23;19919;-72
2022/04/28 19:55:34;;;;;;;;;;;6.90;79.30;;;;;;6133095;23;19916;-75
2022/04/28 19:57:59;;;;;;;;;;;6.90;76.90;;;;;;6159537;23;20342;-73
2022/04/28 20:00:26;;;;;;;;;;;6.90;79.50;;;;;;6134512;23;19960;-75
2022/04/28 20:02:52;;;;;;;;;;;6.80;79.90;;;;;;6158946;23;19934;-73
2022/04/28 20:05:17;;;;;;;;;;;6.80;79.70;;;;;;6133876;23;19947;-72
2022/04/28 20:07:43;;;;;;;;;;;6.70;79.90;;;;;;6159060;23;19912;-72
2022/04/28 20:10:11;;;;;;;;;;;7.00;80.00;;;;;;6159183;23;19954;-72
2022/04/28 20:12:37;;;;;;;;;;;6.70;80.30;;;;;;6183976;23;19912;-73
2022/04/28 20:15:04;;;;;;;;;;;6.60;80.50;;;;;;6158386;23;19912;-73
2022/04/28 20:17:30;;;;;;;;;;;6.60;80.70;;;;;;6158694;23;20271;-73
2022/04/28 20:19:56;;;;;;;;;;;6.50;80.60;;;;;;6134389;23;19923;-73
2022/04/28 20:22:22;;;;;;;;;;;6.60;81.20;;;;;;6159368;23;19912;-72
2022/04/28 20:24:49;;;;;;;;;;;6.60;81.10;;;;;;6159388;23;19987;-72
2022/04/28 20:27:22;;;;;;;;;;;6.60;81.00;;;;;;6159404;23;19953;-72
2022/04/28 20:29:48;;;;;;;;;;;6.70;80.80;;;;;;6185647;23;20000;-77
2022/04/28 20:32:14;;;;;;;;;;;6.50;81.30;;;;;;6159199;23;19916;-74
2022/04/28 20:34:40;;;;;;;;;;;6.50;81.00;;;;;;6164153;23;19912;-75
2022/04/28 20:37:06;;;;;;;;;;;6.50;80.60;;;;;;6163729;23;19960;-73
2022/04/28 20:39:32;;;;;;;;;;;6.50;81.00;;;;;;6144745;23;19912;-74
2022/04/28 20:41:58;;;;;;;;;;;6.40;81.20;;;;;;6151577;23;19920;-78
2022/04/28 20:44:23;;;;;;;;;;;6.40;81.40;;;;;;6137166;23;19920;-76
2022/04/28 20:46:52;;;;;;;;;;;6.40;82.00;;;;;;6136645;23;19919;-79
2022/04/28 20:49:17;;;;;;;;;;;6.30;82.10;;;;;;6160469;23;19922;-76
2022/04/28 20:51:44;;;;;;;;;;;6.30;82.20;;;;;;6186155;23;19986;-76
2022/04/28 20:54:12;;;;;;;;;;;6.40;82.40;;;;;;6136446;23;19923;-79
2022/04/28 20:56:38;;;;;;;;;;;6.20;83.00;;;;;;6135917;23;19912;-75
2022/04/28 20:59:04;;;;;;;;;;;6.30;82.70;;;;;;6136826;23;20304;-77
2022/04/28 21:01:30;;;;;;;;;;;6.10;82.20;;;;;;6160895;23;19919;-75
2022/04/28 21:03:55;;;;;;;;;;;6.40;82.30;;;;;;6137405;23;19917;-77
2022/04/28 21:06:21;;;;;;;;;;;6.10;82.60;;;;;;6137316;23;19912;-77
2022/04/28 21:08:47;;;;;;;;;;;6.10;81.70;;;;;;6163221;23;19912;-77
2022/04/28 21:11:12;;;;;;;;;;;6.00;82.70;;;;;;6189452;23;19912;-77
2022/04/28 21:13:39;;;;;;;;;;;6.00;82.90;;;;;;6164977;23;19904;-75
2022/04/28 21:16:07;;;;;;;;;;;6.00;83.00;;;;;;6188877;23;19904;-77
2022/04/28 21:18:33;;;;;;;;;;;6.00;83.00;;;;;;6180287;23;20239;-77
2022/04/28 21:20:59;;;;;;;;;;;6.00;82.70;;;;;;6136644;23;19951;-75
2022/04/28 21:23:24;;;;;;;;;;;6.00;83.10;;;;;;6135807;23;20252;-73
2022/04/28 21:25:53;;;;;;;;;;;5.90;83.00;;;;;;6160311;23;19999;-75
2022/04/28 21:28:20;;;;;;;;;;;5.90;83.60;;;;;;6136585;23;19913;-74
2022/04/28 21:30:47;;;;;;;;;;;5.90;82.80;;;;;;6160578;23;19923;-74
2022/04/28 21:33:12;;;;;;;;;;;5.90;83.40;;;;;;6160492;23;19956;-74
2022/04/28 21:35:38;;;;;;;;;;;6.10;83.70;;;;;;6159851;23;20315;-75
2022/04/28 21:38:04;;;;;;;;;;;6.10;83.80;;;;;;6160748;23;20346;-74
2022/04/28 21:40:31;;;;;;;;;;;5.60;83.60;;;;;;6160296;23;20380;-78
2022/04/28 21:42:56;;;;;;;;;;;5.20;83.40;;;;;;6160755;23;19917;-79
2022/04/28 21:45:22;;;;;;;;;;;5.40;83.80;;;;;;6160060;23;19912;-79
2022/04/28 21:47:48;;;;;;;;;;;5.30;84.90;;;;;;6160283;23;19974;-77
2022/04/28 21:50:14;;;;;;;;;;;5.30;84.60;;;;;;6160084;23;19912;-77
2022/04/28 21:52:40;;;;;;;;;;;5.30;85.10;;;;;;6160653;23;19967;-77
2022/04/28 21:55:06;;;;;;;;;;;5.30;85.10;;;;;;6160643;23;19923;-78
2022/04/28 21:57:35;;;;;;;;;;;5.30;85.10;;;;;;6160560;23;20301;-78
2022/04/28 22:00:07;;;;;;;;;;;5.40;84.30;;;;;;6166380;23;20345;-77
2022/04/28 22:02:36;;;;;;;;;;;5.40;85.70;;;;;;6196902;23;19919;-72
2022/04/28 22:13:23;;;;;;;;;;;5.60;84.60;;;;;;6161178;23;19963;-80
2022/04/28 22:15:48;;;;;;;;;;;5.60;84.90;;;;;;6159495;23;19983;-73
2022/04/28 22:18:14;;;;;;;;;;;5.60;84.60;;;;;;6186617;23;20050;-78
2022/04/28 22:20:40;;;;;;;;;;;5.50;83.70;;;;;;6135608;23;19987;-77
2022/04/28 22:23:05;;;;;;;;;;;5.60;83.90;;;;;;6160245;23;20388;-78
2022/04/28 22:25:32;;;;;;;;;;;5.60;85.10;;;;;;6159704;23;20259;-76
2022/04/28 22:27:57;;;;;;;;;;;5.60;85.50;;;;;;6135858;23;19916;-76
2022/04/28 22:30:23;;;;;;;;;;;5.70;85.30;;;;;;6159826;23;19912;-77